METAR AND TAF INFORMATION
METAR FOR UKKK
ADDS - METARS form results

(0953 UTC 14 November 2018)
Data provider http://aviationweather.gov/metar/data/
 
METAR text: UKKK 140942Z 18003MPS 130V240 1200 R08/1400D SN BKN007 OVC016 M03/M04 Q1024 R08/590430 TEMPO 1000 FZRASN BKN007 SCT015CB
Conditions at: UKKK (KIEV/ZHYLIANY , UA) observed 0942 UTC 14 November 2018
Temperature: -3.0°C (27°F)
Dewpoint: -4.0°C (25°F) [RH = 93%]
Pressure (altimeter): 30.24 inches Hg (1024.0 mb)
Winds: from the S (180 degrees) at 7 MPH (6 knots; 3.1 m/s)
Visibility: 0.75 miles (1.21 km)
Ceiling: 700 feet AGL
Clouds: broken clouds at 700 feet AGL
overcast cloud deck at 1600 feet AGL
Weather: SN  (moderate snow)

METAR text: UKKK 140941Z 18003MPS 120V240 1900 1400W R08/1500D SN BKN008 OVC021 M03/M04 Q1025 R08/590430 TEMPO 1000 FZRASN BKN007 SCT015CB
Conditions at: UKKK (KIEV/ZHYLIANY , UA) observed 0941 UTC 14 November 2018
Temperature: -3.0°C (27°F)
Dewpoint: -4.0°C (25°F) [RH = 93%]
Pressure (altimeter): 30.27 inches Hg (1025.0 mb)
Winds: from the S (180 degrees) at 7 MPH (6 knots; 3.1 m/s)
Visibility: 1.18 miles (1.90 km)
Ceiling: 800 feet AGL
Clouds: broken clouds at 800 feet AGL
overcast cloud deck at 2100 feet AGL
Weather: SN  (moderate snow)

METAR text: UKKK 140931Z 18003MPS 130V230 4100 -SN BKN009 OVC021 M03/M04 Q1025 R08/590430 TEMPO 0800 +FZRASN BKN005 BKN015CB
Conditions at: UKKK (KIEV/ZHYLIANY , UA) observed 0931 UTC 14 November 2018
Temperature: -3.0°C (27°F)
Dewpoint: -4.0°C (25°F) [RH = 93%]
Pressure (altimeter): 30.27 inches Hg (1025.0 mb)
Winds: from the S (180 degrees) at 7 MPH (6 knots; 3.1 m/s)
Visibility: 2.55 miles (4.10 km)
Ceiling: 900 feet AGL
Clouds: broken clouds at 900 feet AGL
overcast cloud deck at 2100 feet AGL
Weather: -SN  (light snow)

METAR text: UKKK 140930Z 18003MPS 130V230 3600 -SN BKN012 OVC021 M03/M04 Q1025 R08/590430 TEMPO 0800 +FZRASN BKN005 BKN015CB
Conditions at: UKKK (KIEV/ZHYLIANY , UA) observed 0930 UTC 14 November 2018
Temperature: -3.0°C (27°F)
Dewpoint: -4.0°C (25°F) [RH = 93%]
Pressure (altimeter): 30.27 inches Hg (1025.0 mb)
Winds: from the S (180 degrees) at 7 MPH (6 knots; 3.1 m/s)
Visibility: 2.24 miles (3.60 km)
Ceiling: 1200 feet AGL
Clouds: broken clouds at 1200 feet AGL
overcast cloud deck at 2100 feet AGL
Weather: -SN  (light snow)

METAR text: UKKK 140919Z 17003MPS 130V220 0900 R08/1600U +SN BKN009 OVC025 M03/M05 Q1025 R08/590430 TEMPO 0800 +FZRASN BKN005 BKN015CB
Conditions at: UKKK (KIEV/ZHYLIANY , UA) observed 0919 UTC 14 November 2018
Temperature: -3.0°C (27°F)
Dewpoint: -5.0°C (23°F) [RH = 86%]
Pressure (altimeter): 30.27 inches Hg (1025.0 mb)
Winds: from the S (170 degrees) at 7 MPH (6 knots; 3.1 m/s)
Visibility: 0.56 miles (0.90 km)
Ceiling: 900 feet AGL
Clouds: broken clouds at 900 feet AGL
overcast cloud deck at 2500 feet AGL
Weather: +SN  (heavy snow)

METAR text: UKKK 140914Z 17003MPS 130V200 0750 R08/1000N +SN BKN015 OVC025 M04/M05 Q1024 R08/590430 TEMPO 0800 +FZRASN BKN005 BKN015CB
Conditions at: UKKK (KIEV/ZHYLIANY , UA) observed 0914 UTC 14 November 2018
Temperature: -4.0°C (25°F)
Dewpoint: -5.0°C (23°F) [RH = 93%]
Pressure (altimeter): 30.24 inches Hg (1024.0 mb)
Winds: from the S (170 degrees) at 7 MPH (6 knots; 3.1 m/s)
Visibility: 0.47 miles (0.76 km)
Ceiling: 1500 feet AGL
Clouds: broken clouds at 1500 feet AGL
overcast cloud deck at 2500 feet AGL
Weather: +SN  (heavy snow)

METAR text: UKKK 140903Z 17004MPS 130V220 0900 0800E R08/1100N +SN BKN014 OVC027 M04/M05 Q1025 R08/590430 TEMPO 0800 +FZRASN BKN005 BKN015CB
Conditions at: UKKK (KIEV/ZHYLIANY , UA) observed 0903 UTC 14 November 2018
Temperature: -4.0°C (25°F)
Dewpoint: -5.0°C (23°F) [RH = 93%]
Pressure (altimeter): 30.27 inches Hg (1025.0 mb)
Winds: from the S (170 degrees) at 9 MPH (8 knots; 4.1 m/s)
Visibility: 0.56 miles (0.90 km)
Ceiling: 1400 feet AGL
Clouds: broken clouds at 1400 feet AGL
overcast cloud deck at 2700 feet AGL
Weather: +SN  (heavy snow)

METAR text: UKKK 140900Z 17004MPS 130V230 0900 0800E R08/1100N +SN OVC015 M04/M05 Q1025 R08/590430 TEMPO 0500 +FZRASN BKN005 BKN015CB
Conditions at: UKKK (KIEV/ZHYLIANY , UA) observed 0900 UTC 14 November 2018
Temperature: -4.0°C (25°F)
Dewpoint: -5.0°C (23°F) [RH = 93%]
Pressure (altimeter): 30.27 inches Hg (1025.0 mb)
Winds: from the S (170 degrees) at 9 MPH (8 knots; 4.1 m/s)
Visibility: 0.56 miles (0.90 km)
Ceiling: 1500 feet AGL
Clouds: overcast cloud deck at 1500 feet AGL
Weather: +SN  (heavy snow)

Forecast for: AMD
Text: TAF AMD UKKK 140853Z 1408/1506 17006MPS 0500 +SHSN OVC003 SCT013CB TXM00/1412Z TNM02/1504Z
Forecast period: 0800 UTC 14 November 2018 to 0600 UTC 15 November 2018
Forecast type: FROM: standard forecast or significant change
Winds: from the S (170 degrees) at 14 MPH (12 knots; 6.2 m/s)
Visibility: 0.31 miles (0.50 km)
Ceiling: 300 feet AGL
Clouds: overcast cloud deck at 300 feet AGL
scattered clouds at 1300 feet AGL
Weather: +SHSN  (heavy snow showers)
Text: TEMPO 1408/1415 19008G13MPS 1500 FZRASN OVC007
Forecast period: 0800 to 1500 UTC 14 November 2018
Forecast type: TEMPORARY: The following changes expected for less than half the time period
Winds: from the S (190 degrees) at 18 MPH (16 knots; 8.2 m/s)
gusting to 29 MPH (25 knots; 12.9 m/s)
Visibility: 0.93 miles (1.50 km)
Ceiling: 700 feet AGL
Clouds: overcast cloud deck at 700 feet AGL
Weather: FZRA SN  (freezing rain, moderate snow)
Text: TEMPO 1415/1421 2000 -SHSN BR BKN005 SCT012CB
Forecast period: 1500 to 2100 UTC 14 November 2018
Forecast type: TEMPORARY: The following changes expected for less than half the time period
Visibility: 1.24 miles (2.00 km)
Ceiling: 500 feet AGL
Clouds: broken clouds at 500 feet AGL
scattered clouds at 1200 feet AGL
Weather: -SHSN BR  (light snow showers, mist)
Text: TEMPO 1421/1506 1000 BR BKN003
Forecast period: 2100 UTC 14 November 2018 to 0600 UTC 15 November 2018
Forecast type: TEMPORARY: The following changes expected for less than half the time period
Visibility: 0.62 miles (1.00 km)
Ceiling: 300 feet AGL
Clouds: broken clouds at 300 feet AGL
Weather: BR  (mist)

 AIRPORT MAP

 RUNWAY INFORMATION
Runway 08 Runway length 5905 ft Runway width 161 ft
Runway elevation 559 ft Runway displaced threshold 0 ft Runway heading 86
Runway 26 Runway length 5905 ft Runway width 161 ft
Runway elevation 586 ft Runway displaced threshold 0 ft Runway heading 266

 AIRPORT FREQUENCIES
Type APP Name ARR Frequency 122.5 MHZ
Type APP Name KYIV RADAR Frequency 123 MHZ
Type GND Name GND Frequency 119 MHZ
Type PMSV Name METEO Frequency 126.8 MHZ
Type TWR Name TWR Frequency 122.5 MHZ

 AIRPORT NEAR NAVIGATION AIDS
Type NDB Name Zhulyany Frequency 360 KHZ
Type NDB Name Zhulyany Frequency 360 KHZ



Powered by Virtual Airlines Manager